Terminal Aerodrome Forecast
Issued by NWS Jackson, MS

Home | Current Version | Previous Version | Text Only | Print | Product List | Glossary On
Versions: 1 2 3 4 5 6 7 8 9 10 11 12 13 14 15 16 17
194
FTUS44 KJAN 181720
TAFGLH
TAF
KGLH 181720Z 1818/1918 12007KT P6SM -RA BKN014 OVC060
     FM181900 13008KT P6SM OVC010
     FM190600 17009KT 5SM BR OVC015
     FM191500 18015G21KT P6SM BKN015 OVC025=

USA.gov is the U.S. government's official web portal to all federal, state and local government web resources and services.